Main page
METAR-TAF:

METAR-TAF

Airports :

Arturo Michelena International Airport

Valencia, Venezuela

latitude: 10-10N, longitude: 067-56W, elevation: 430 m

Current weather observation

The report was made 1 hour and 1 minutes ago, at 21:03 UTC
Wind 5 kt from the Southwest
Temperature 31°C
Humidity 52%
Pressure 1014 hPa

METAR: SVVA 202103Z AUTO 22005KT NCD 31/20 Q1014

Time: 18:04 (22:04 UTC)

Forecast

The report was made 12 hours and 4 minutes ago, at 10:00 UTC
Forecast valid from 20 at 12 UTC to 21 at 12 UTC
Visibility 10 km or more
Broken clouds at a height of 1600 ft
Temporary
from 20 at 16 UTC to 20 at 20 UTC
Wind 5 kt from the Northeast
Visibility 10 km or more
Scattered clouds at a height of 1600 ft
Temporary
from 20 at 23 UTC to 21 at 03 UTC
Wind 4 kt from the Southwest
Visibility 10 km or more
Broken clouds at a height of 1600 ft

TAF: SVVA 201000Z 2012/2112 11003/KT 9999 BKN016 TX31/2018Z TN21/2109Z TEMPO 2016/2020 04005KT 9999 SCT016 TEMPO 2023/2103 22004KT 9999 BKN016

Weather observations and forecasts of more than 4000 airports (METAR and TAF reports).

The available stations are represented by yellow and red dots on the map.

Hover mouse over dot to see the name of the station.

Then click to see weather observations and forecasts.

To change the map : click on the green buttons with a black cross to zoom in, on the green button with a dash to zoom out, or on the green arrows for adjacent maps.


METAR-TAF: